Time,TemperatureF,DewpointF,PressureIn,WindDirection,WindDirectionDegrees,WindSpeedMPH,WindSpeedGustMPH,Humidity,HourlyPrecipIn,Conditions,Clouds,dailyrainin,SoftwareType,DateUTC
2013-11-21 00:15:00,35.2,28.7,30.24,ENE,67,3.7,-999.0,77,-99.99,,,0.00,Acu-Link.com,2013-11-21 08:15:00,
2013-11-21 00:30:00,34.7,28.9,30.25,East,90,1.7,-999.0,79,-99.99,,,0.00,Acu-Link.com,2013-11-21 08:30:00,
2013-11-21 00:45:00,34.5,28.7,30.25,NE,45,2.7,-999.0,79,-99.99,,,0.00,Acu-Link.com,2013-11-21 08:45:00,
2013-11-21 01:01:00,34.5,29.3,30.25,ENE,67,3.2,-999.0,81,-99.99,,,0.00,Acu-Link.com,2013-11-21 09:01:00,
2013-11-21 01:16:00,33.8,29.2,30.25,East,90,2.7,-999.0,83,-99.99,,,0.00,Acu-Link.com,2013-11-21 09:16:00,
2013-11-21 01:31:00,33.3,29.6,30.25,NE,45,1.7,-999.0,86,-99.99,,,0.00,Acu-Link.com,2013-11-21 09:31:00,
2013-11-21 01:46:00,32.7,29.3,30.27,NE,45,1.7,-999.0,87,-99.99,,,0.00,Acu-Link.com,2013-11-21 09:46:00,
2013-11-21 02:01:00,32.5,29.3,30.27,ENE,67,4.2,-999.0,88,-99.99,,,0.00,Acu-Link.com,2013-11-21 10:01:00,
2013-11-21 02:16:00,32.5,29.6,30.28,East,90,2.7,-999.0,89,-99.99,,,0.00,Acu-Link.com,2013-11-21 10:16:00,
2013-11-21 02:31:00,32.4,29.5,30.28,East,90,0.0,-999.0,89,-99.99,,,0.00,Acu-Link.com,2013-11-21 10:31:00,
2013-11-21 02:47:00,31.8,29.2,30.28,ENE,67,1.7,-999.0,90,-99.99,,,0.00,Acu-Link.com,2013-11-21 10:47:00,
2013-11-21 03:02:00,32.7,29.5,30.27,NNE,22,3.2,-999.0,88,-99.99,,,0.00,Acu-Link.com,2013-11-21 11:02:00,
2013-11-21 03:19:00,32.5,29.9,30.28,NNE,22,0.0,-999.0,90,-99.99,,,0.00,Acu-Link.com,2013-11-21 11:19:00,
2013-11-21 03:34:00,31.5,29.2,30.29,NE,45,0.0,-999.0,91,-99.99,,,0.00,Acu-Link.com,2013-11-21 11:34:00,
2013-11-21 03:49:00,31.6,29.5,30.28,NE,45,1.7,-999.0,92,-99.99,,,0.00,Acu-Link.com,2013-11-21 11:49:00,
2013-11-21 04:04:00,31.6,29.3,30.29,NE,45,1.7,-999.0,91,-99.99,,,0.00,Acu-Link.com,2013-11-21 12:04:00,
2013-11-21 04:19:00,31.6,29.0,30.30,NE,45,1.7,-999.0,90,-99.99,,,0.00,Acu-Link.com,2013-11-21 12:19:00,
2013-11-21 04:35:00,32.0,29.4,30.30,NE,45,3.7,-999.0,90,-99.99,,,0.00,Acu-Link.com,2013-11-21 12:35:00,
2013-11-21 04:51:00,32.0,29.1,30.31,NNE,22,1.7,-999.0,89,-99.99,,,0.00,Acu-Link.com,2013-11-21 12:51:00,
2013-11-21 05:06:00,32.0,29.4,30.31,NNW,337,0.0,-999.0,90,-99.99,,,0.00,Acu-Link.com,2013-11-21 13:06:00,
2013-11-21 05:21:00,31.8,28.9,30.32,East,90,2.2,-999.0,89,-99.99,,,0.00,Acu-Link.com,2013-11-21 13:21:00,
2013-11-21 05:36:00,32.5,29.6,30.32,ENE,67,1.1,-999.0,89,-99.99,,,0.00,Acu-Link.com,2013-11-21 13:36:00,
2013-11-21 05:52:00,32.0,29.9,30.32,North,0,1.7,-999.0,92,-99.99,,,0.00,Acu-Link.com,2013-11-21 13:52:00,
2013-11-21 06:07:00,31.3,29.3,30.32,East,90,2.2,-999.0,92,-99.99,,,0.00,Acu-Link.com,2013-11-21 14:07:00,
2013-11-21 06:22:00,31.6,29.5,30.33,ENE,67,0.0,-999.0,92,-99.99,,,0.00,Acu-Link.com,2013-11-21 14:22:00,
2013-11-21 06:38:00,31.6,30.1,30.33,NE,45,2.2,-999.0,94,-99.99,,,0.00,Acu-Link.com,2013-11-21 14:38:00,
2013-11-21 06:53:00,31.5,30.0,30.34,ENE,67,2.2,-999.0,94,-99.99,,,0.00,Acu-Link.com,2013-11-21 14:53:00,
2013-11-21 07:08:00,31.3,29.8,30.33,East,90,2.7,-999.0,94,-99.99,,,0.00,Acu-Link.com,2013-11-21 15:08:00,
2013-11-21 07:23:00,31.3,30.0,30.34,East,90,2.2,-999.0,95,-99.99,,,0.00,Acu-Link.com,2013-11-21 15:23:00,
2013-11-21 07:38:00,31.1,29.6,30.35,East,90,3.7,-999.0,94,-99.99,,,0.00,Acu-Link.com,2013-11-21 15:38:00,
2013-11-21 07:53:00,31.6,30.1,30.35,ENE,67,1.7,-999.0,94,-99.99,,,0.00,Acu-Link.com,2013-11-21 15:53:00,
2013-11-21 08:09:00,31.8,30.3,30.36,ENE,67,0.0,-999.0,94,-99.99,,,0.00,Acu-Link.com,2013-11-21 16:09:00,
2013-11-21 08:56:00,31.8,30.3,30.37,East,90,2.7,-999.0,94,-99.99,,,0.00,Acu-Link.com,2013-11-21 16:56:00,
2013-11-21 09:13:00,36.0,31.0,30.36,East,90,2.2,-999.0,82,-99.99,,,0.00,Acu-Link.com,2013-11-21 17:13:00,
2013-11-21 09:28:00,36.1,31.1,30.36,ESE,112,2.7,-999.0,82,-99.99,,,0.00,Acu-Link.com,2013-11-21 17:28:00,
2013-11-21 09:43:00,37.4,31.8,30.36,ESE,112,3.7,-999.0,80,-99.99,,,0.00,Acu-Link.com,2013-11-21 17:43:00,
2013-11-21 09:59:00,37.9,31.7,30.36,NE,45,1.1,-999.0,78,-99.99,,,0.00,Acu-Link.com,2013-11-21 17:59:00,
2013-11-21 10:14:00,37.9,31.7,30.36,SSW,202,0.0,-999.0,78,-99.99,,,0.00,Acu-Link.com,2013-11-21 18:14:00,
2013-11-21 10:29:00,39.2,32.6,30.36,ENE,67,2.2,-999.0,77,-99.99,,,0.00,Acu-Link.com,2013-11-21 18:29:00,
2013-11-21 10:44:00,39.0,31.1,30.36,NW,315,3.7,-999.0,73,-99.99,,,0.00,Acu-Link.com,2013-11-21 18:44:00,
2013-11-21 10:59:00,39.6,29.2,30.36,NNW,337,2.2,-999.0,66,-99.99,,,0.00,Acu-Link.com,2013-11-21 18:59:00,
2013-11-21 11:14:00,41.0,28.6,30.35,NNE,22,1.1,-999.0,61,-99.99,,,0.00,Acu-Link.com,2013-11-21 19:14:00,
2013-11-21 11:29:00,40.8,25.9,30.35,NE,45,5.3,-999.0,55,-99.99,,,0.00,Acu-Link.com,2013-11-21 19:29:00,
2013-11-21 11:44:00,41.5,27.8,30.35,East,90,2.7,-999.0,58,-99.99,,,0.00,Acu-Link.com,2013-11-21 19:44:00,
2013-11-21 11:59:00,41.9,29.4,30.34,SW,225,4.7,-999.0,61,-99.99,,,0.00,Acu-Link.com,2013-11-21 19:59:00,
2013-11-21 12:15:00,41.9,27.8,30.35,NNE,22,3.7,-999.0,57,-99.99,,,0.00,Acu-Link.com,2013-11-21 20:15:00,
2013-11-21 12:30:00,42.8,29.1,30.34,North,0,6.3,-999.0,58,-99.99,,,0.00,Acu-Link.com,2013-11-21 20:30:00,
2013-11-21 12:45:00,43.0,30.9,30.34,West,270,3.7,-999.0,62,-99.99,,,0.00,Acu-Link.com,2013-11-21 20:45:00,
2013-11-21 13:00:00,43.3,30.4,30.34,SW,225,5.8,-999.0,60,-99.99,,,0.00,Acu-Link.com,2013-11-21 21:00:00,
2013-11-21 13:15:00,43.5,29.7,30.34,WNW,292,2.7,-999.0,58,-99.99,,,0.00,Acu-Link.com,2013-11-21 21:15:00,
2013-11-21 13:30:00,44.1,29.4,30.34,North,0,2.7,-999.0,56,-99.99,,,0.00,Acu-Link.com,2013-11-21 21:30:00,
2013-11-21 13:45:00,43.9,27.0,30.33,West,270,5.3,-999.0,51,-99.99,,,0.00,Acu-Link.com,2013-11-21 21:45:00,
2013-11-21 14:00:00,43.7,27.7,30.33,SSW,202,4.7,-999.0,53,-99.99,,,0.00,Acu-Link.com,2013-11-21 22:00:00,
2013-11-21 14:15:00,43.5,28.4,30.34,NW,315,6.8,-999.0,55,-99.99,,,0.00,Acu-Link.com,2013-11-21 22:15:00,
2013-11-21 14:31:00,43.7,29.9,30.33,WNW,292,6.3,-999.0,58,-99.99,,,0.00,Acu-Link.com,2013-11-21 22:31:00,
2013-11-21 14:46:00,43.5,30.1,30.33,NNE,22,6.8,-999.0,59,-99.99,,,0.00,Acu-Link.com,2013-11-21 22:46:00,
2013-11-21 15:01:00,43.7,29.9,30.34,WNW,292,4.2,-999.0,58,-99.99,,,0.00,Acu-Link.com,2013-11-21 23:01:00,
2013-11-21 15:16:00,43.5,28.4,30.34,NW,315,4.7,-999.0,55,-99.99,,,0.00,Acu-Link.com,2013-11-21 23:16:00,
2013-11-21 15:31:00,43.3,29.9,30.34,NNW,337,5.3,-999.0,59,-99.99,,,0.00,Acu-Link.com,2013-11-21 23:31:00,
2013-11-21 15:47:00,42.8,29.1,30.35,NNW,337,4.7,-999.0,58,-99.99,,,0.00,Acu-Link.com,2013-11-21 23:47:00,
2013-11-21 17:55:00,39.0,30.8,30.37,NNW,337,3.2,-999.0,72,-99.99,,,0.00,Acu-Link.com,2013-11-22 01:55:00,
2013-11-21 18:10:00,38.7,31.1,30.38,NNW,337,4.7,-999.0,74,-99.99,,,0.00,Acu-Link.com,2013-11-22 02:10:00,
2013-11-21 18:25:00,37.9,30.7,30.38,NE,45,0.0,-999.0,75,-99.99,,,0.00,Acu-Link.com,2013-11-22 02:25:00,
2013-11-21 18:40:00,37.8,30.6,30.38,ENE,67,3.7,-999.0,75,-99.99,,,0.00,Acu-Link.com,2013-11-22 02:40:00,
2013-11-21 18:55:00,37.9,30.4,30.38,East,90,5.3,-999.0,74,-99.99,,,0.00,Acu-Link.com,2013-11-22 02:55:00,
2013-11-21 19:11:00,37.6,30.4,30.38,East,90,4.2,-999.0,75,-99.99,,,0.00,Acu-Link.com,2013-11-22 03:11:00,
2013-11-21 19:26:00,37.2,30.7,30.36,NE,45,4.7,-999.0,77,-99.99,,,0.00,Acu-Link.com,2013-11-22 03:26:00,
2013-11-21 19:41:00,36.7,30.2,30.36,SE,135,3.7,-999.0,77,-99.99,,,0.00,Acu-Link.com,2013-11-22 03:41:00,
2013-11-21 19:57:00,36.9,30.7,30.35,NE,45,2.2,-999.0,78,-99.99,,,0.00,Acu-Link.com,2013-11-22 03:57:00,
2013-11-21 20:12:00,36.5,30.6,30.36,NE,45,1.7,-999.0,79,-99.99,,,0.00,Acu-Link.com,2013-11-22 04:12:00,
2013-11-21 20:27:00,36.3,30.1,30.36,NNW,337,0.0,-999.0,78,-99.99,,,0.00,Acu-Link.com,2013-11-22 04:27:00,
2013-11-21 20:51:00,36.1,30.2,30.37,West,270,1.7,-999.0,79,-99.99,,,0.00,Acu-Link.com,2013-11-22 04:51:00,
2013-11-21 21:09:00,36.9,31.0,30.36,SW,225,2.7,-999.0,79,-99.99,,,0.00,Acu-Link.com,2013-11-22 05:09:00,
2013-11-21 21:24:00,36.7,30.8,30.37,NW,315,0.0,-999.0,79,-99.99,,,0.00,Acu-Link.com,2013-11-22 05:24:00,
2013-11-21 21:39:00,34.9,30.0,30.37,ESE,112,0.0,-999.0,82,-99.99,,,0.00,Acu-Link.com,2013-11-22 05:39:00,
2013-11-21 21:55:00,35.8,29.6,30.37,East,90,1.7,-999.0,78,-99.99,,,0.00,Acu-Link.com,2013-11-22 05:55:00,
2013-11-21 22:10:00,35.4,28.9,30.37,NE,45,2.7,-999.0,77,-99.99,,,0.00,Acu-Link.com,2013-11-22 06:10:00,
2013-11-21 22:25:00,35.2,28.7,30.37,East,90,2.7,-999.0,77,-99.99,,,0.00,Acu-Link.com,2013-11-22 06:25:00,
2013-11-21 22:40:00,35.4,28.9,30.37,ENE,67,2.7,-999.0,77,-99.99,,,0.00,Acu-Link.com,2013-11-22 06:40:00,
2013-11-21 22:55:00,35.2,29.0,30.37,East,90,1.7,-999.0,78,-99.99,,,0.00,Acu-Link.com,2013-11-22 06:55:00,
2013-11-21 23:10:00,34.7,29.5,30.37,ENE,67,2.2,-999.0,81,-99.99,,,0.00,Acu-Link.com,2013-11-22 07:10:00,
2013-11-21 23:26:00,34.5,30.2,30.37,ENE,67,0.0,-999.0,84,-99.99,,,0.00,Acu-Link.com,2013-11-22 07:26:00,
2013-11-21 23:41:00,34.5,30.5,30.37,NE,45,0.0,-999.0,85,-99.99,,,0.00,Acu-Link.com,2013-11-22 07:41:00,
2013-11-21 23:56:00,34.5,30.5,30.37,NNE,22,2.2,-999.0,85,-99.99,,,0.00,Acu-Link.com,2013-11-22 07:56:00,